createdAt,value
2019-01-15T00:01:15.731Z,3.13
2019-01-15T00:03:44.381Z,3.57
2019-01-15T00:06:12.994Z,3.90
2019-01-15T00:08:42.803Z,3.43
2019-01-15T00:11:11.236Z,3.23
2019-01-15T00:13:40.677Z,4.53
2019-01-15T00:16:09.362Z,4.00
2019-01-15T00:18:41.405Z,3.17
2019-01-15T00:21:11.061Z,4.10
2019-01-15T00:23:42.333Z,3.03
2019-01-15T00:26:11.554Z,3.57
2019-01-15T00:28:40.621Z,3.23
2019-01-15T00:31:09.196Z,3.97
2019-01-15T00:33:38.157Z,4.03
2019-01-15T00:36:06.965Z,3.47
2019-01-15T00:38:35.653Z,4.23
2019-01-15T00:41:04.243Z,3.33
2019-01-15T00:43:33.905Z,3.67
2019-01-15T00:46:02.408Z,3.70
2019-01-15T00:48:31.291Z,3.93
2019-01-15T00:50:59.758Z,4.53
2019-01-15T00:53:28.741Z,3.90
2019-01-15T00:55:57.922Z,4.10
2019-01-15T00:58:28.326Z,4.40
2019-01-15T01:00:58.170Z,4.23
2019-01-15T01:03:26.895Z,4.93
2019-01-15T01:05:55.535Z,4.13
2019-01-15T01:08:24.360Z,4.53
2019-01-15T01:10:55.546Z,4.50
2019-01-15T01:13:24.200Z,4.43
2019-01-15T01:15:52.805Z,4.13
2019-01-15T01:18:22.868Z,5.57
2019-01-15T01:20:51.593Z,4.60
2019-01-15T01:23:19.972Z,4.77
2019-01-15T01:25:51.152Z,4.97
2019-01-15T01:28:20.095Z,5.00
2019-01-15T01:30:49.882Z,5.40
2019-01-15T01:33:19.348Z,5.10
2019-01-15T01:35:50.843Z,5.10
2019-01-15T01:38:21.328Z,4.27
2019-01-15T01:40:50.147Z,4.60
2019-01-15T01:43:18.643Z,4.83
2019-01-15T01:45:48.296Z,5.00
2019-01-15T01:48:17.194Z,5.20
2019-01-15T01:50:48.277Z,4.60
2019-01-15T01:53:17.637Z,6.13
2019-01-15T01:55:46.415Z,5.57
2019-01-15T01:58:14.931Z,6.83
2019-01-15T02:00:44.178Z,6.20
2019-01-15T02:03:16.328Z,6.27
2019-01-15T02:05:47.966Z,6.63
2019-01-15T02:08:16.690Z,5.67
2019-01-15T02:10:44.943Z,6.10
2019-01-15T02:13:13.434Z,5.97
2019-01-15T02:15:42.092Z,4.90
2019-01-15T02:18:11.729Z,6.07
2019-01-15T02:20:41.478Z,5.53
2019-01-15T02:23:10.430Z,6.70
2019-01-15T02:25:42.161Z,7.57
2019-01-15T02:28:12.680Z,6.73
2019-01-15T02:30:45.690Z,6.70
2019-01-15T02:33:14.419Z,6.77
2019-01-15T02:35:43.818Z,6.30
2019-01-15T02:38:12.514Z,7.60
2019-01-15T02:40:41.310Z,7.77
2019-01-15T02:43:10.186Z,7.27
2019-01-15T02:45:41.420Z,7.70
2019-01-15T02:48:09.767Z,7.97
2019-01-15T02:50:42.046Z,7.70
2019-01-15T02:53:10.606Z,8.17
2019-01-15T02:55:40.345Z,8.10
2019-01-15T02:58:10.040Z,7.17
2019-01-15T03:00:39.941Z,8.03
2019-01-15T03:03:09.337Z,8.17
2019-01-15T03:05:38.541Z,7.83
2019-01-15T03:08:07.209Z,9.13
2019-01-15T03:10:36.350Z,8.47
2019-01-15T03:13:05.119Z,8.50
2019-01-15T03:15:33.715Z,9.10
2019-01-15T03:18:03.396Z,9.03
2019-01-15T03:20:32.893Z,9.37
2019-01-15T03:23:02.807Z,8.93
2019-01-15T03:25:31.444Z,9.53
2019-01-15T03:28:01.752Z,10.07
2019-01-15T03:30:30.911Z,9.03
2019-01-15T03:33:00.727Z,9.77
2019-01-15T03:35:29.878Z,10.80
2019-01-15T03:37:58.419Z,10.00
2019-01-15T03:40:27.213Z,10.20
2019-01-15T03:43:03.167Z,9.40
2019-01-15T03:45:27.368Z,9.70
2019-01-15T03:47:56.000Z,10.73
2019-01-15T03:50:24.498Z,10.27
2019-01-15T03:52:53.954Z,10.97
2019-01-15T03:55:23.273Z,11.07
2019-01-15T03:57:52.199Z,10.97
2019-01-15T04:00:22.795Z,10.47
2019-01-15T04:02:56.391Z,11.23
2019-01-15T04:05:25.449Z,11.93
2019-01-15T04:07:56.042Z,11.23
2019-01-15T04:10:25.808Z,10.57
2019-01-15T04:12:54.210Z,11.57
2019-01-15T04:15:23.670Z,10.87
2019-01-15T04:17:55.364Z,11.23
2019-01-15T04:20:24.410Z,10.83
2019-01-15T04:22:55.873Z,10.60
2019-01-15T04:25:24.592Z,13.17
2019-01-15T04:27:53.052Z,11.40
2019-01-15T04:30:22.916Z,12.23
2019-01-15T04:32:51.896Z,11.40
2019-01-15T04:35:20.820Z,11.93
2019-01-15T04:37:49.883Z,11.63
2019-01-15T04:40:20.030Z,12.40
2019-01-15T04:42:49.218Z,12.57
2019-01-15T04:45:19.840Z,12.77
2019-01-15T04:47:48.345Z,12.60
2019-01-15T04:50:16.908Z,11.70
2019-01-15T04:52:51.288Z,12.67
2019-01-15T04:55:19.801Z,11.57
2019-01-15T04:57:49.696Z,12.07
2019-01-15T05:00:19.436Z,11.37
2019-01-15T05:02:49.013Z,11.23
2019-01-15T05:05:17.800Z,11.07
2019-01-15T05:07:50.198Z,11.23
2019-01-15T05:10:19.348Z,11.60
2019-01-15T05:12:51.326Z,12.33
2019-01-15T05:19:31.510Z,12.37
2019-01-15T05:22:01.230Z,12.47
2019-01-15T05:24:31.484Z,12.43
2019-01-15T05:27:00.889Z,12.77
2019-01-15T05:29:30.687Z,12.03
2019-01-15T05:31:59.234Z,14.00
2019-01-15T05:34:28.787Z,13.90
2019-01-15T05:36:58.184Z,15.73
2019-01-15T05:39:28.299Z,13.57
2019-01-15T05:41:56.684Z,15.17
2019-01-15T05:44:28.382Z,15.10
2019-01-15T05:46:57.226Z,15.80
2019-01-15T05:49:26.615Z,15.93
2019-01-15T05:51:55.176Z,15.87
2019-01-15T05:54:23.988Z,16.70
2019-01-15T05:56:52.822Z,17.30
2019-01-15T05:59:24.306Z,18.77
2019-01-15T06:01:54.580Z,18.97
2019-01-15T06:04:23.647Z,19.47
2019-01-15T06:06:55.172Z,19.87
2019-01-15T06:09:24.318Z,20.47
2019-01-15T06:11:55.603Z,18.60
2019-01-15T06:14:25.372Z,20.43
2019-01-15T06:16:54.669Z,23.03
2019-01-15T06:19:26.474Z,20.83
2019-01-15T06:21:57.217Z,20.87
2019-01-15T06:24:38.442Z,22.73
2019-01-15T06:27:21.382Z,23.37
2019-01-15T06:29:51.718Z,23.70
2019-01-15T06:32:22.671Z,25.27
2019-01-15T06:34:52.699Z,25.43
2019-01-15T06:37:21.873Z,25.37
2019-01-15T06:39:51.105Z,25.03
2019-01-15T06:42:22.255Z,26.53
2019-01-15T06:44:54.617Z,27.63
2019-01-15T06:47:24.045Z,27.07
2019-01-15T06:49:52.553Z,28.30
2019-01-15T06:52:21.085Z,29.03
2019-01-15T06:54:50.390Z,27.80
2019-01-15T06:57:18.974Z,29.10
2019-01-15T06:59:47.464Z,31.13
2019-01-15T07:02:18.003Z,30.77
2019-01-15T07:04:46.938Z,31.57
2019-01-15T07:07:16.548Z,32.33
2019-01-15T07:09:45.503Z,31.50
2019-01-15T07:12:14.565Z,33.00
2019-01-15T07:14:44.729Z,30.00
2019-01-15T07:17:13.977Z,32.20
2019-01-15T07:19:43.898Z,30.13
2019-01-15T07:22:14.133Z,32.07
2019-01-15T07:24:46.638Z,29.83
2019-01-15T07:27:16.206Z,29.97
2019-01-15T07:29:45.816Z,29.17
2019-01-15T07:32:14.986Z,28.57
2019-01-15T07:34:44.723Z,29.77
2019-01-15T07:37:14.744Z,27.27
2019-01-15T07:39:43.486Z,26.90
2019-01-15T07:42:13.031Z,27.03
2019-01-15T07:44:44.520Z,26.57
2019-01-15T07:47:17.704Z,26.50
2019-01-15T07:49:47.249Z,26.03
2019-01-15T07:52:18.564Z,26.33
2019-01-15T07:54:47.175Z,25.97
2019-01-15T07:57:19.491Z,26.53
2019-01-15T07:59:48.896Z,26.03
2019-01-15T08:02:19.079Z,25.80
2019-01-15T08:04:52.240Z,26.33
2019-01-15T08:07:21.414Z,25.53
2019-01-15T08:09:51.117Z,24.53
2019-01-15T08:12:19.781Z,23.50
2019-01-15T08:14:49.381Z,25.53
2019-01-15T08:17:17.753Z,24.73
2019-01-15T08:19:46.678Z,26.33
2019-01-15T08:22:16.117Z,25.53
2019-01-15T08:24:45.276Z,23.17
2019-01-15T08:27:14.150Z,25.17
2019-01-15T08:29:43.208Z,24.70
2019-01-15T08:32:15.128Z,24.50
2019-01-15T08:34:44.210Z,23.83
2019-01-15T08:37:14.143Z,26.23
2019-01-15T08:39:45.685Z,24.57
2019-01-15T08:42:14.410Z,23.27
2019-01-15T08:44:44.909Z,23.73
2019-01-15T08:47:14.168Z,24.30
2019-01-15T08:49:47.619Z,24.90
2019-01-15T08:52:16.861Z,25.70
2019-01-15T08:54:45.355Z,25.67
2019-01-15T08:57:14.340Z,25.67
2019-01-15T08:59:43.433Z,24.37
2019-01-15T09:02:13.739Z,25.00
2019-01-15T09:04:42.927Z,24.93
2019-01-15T09:07:11.444Z,24.50
2019-01-15T09:09:39.746Z,26.23
2019-01-15T09:12:08.394Z,25.87
2019-01-15T09:14:37.210Z,28.00
2019-01-15T09:17:11.019Z,26.13
2019-01-15T09:19:37.538Z,25.87
2019-01-15T09:22:07.172Z,27.67
2019-01-15T09:24:35.628Z,28.67
2019-01-15T09:27:04.377Z,26.60
2019-01-15T09:29:35.694Z,24.87
2019-01-15T09:32:06.458Z,25.70
2019-01-15T09:34:35.204Z,25.97
2019-01-15T09:37:09.163Z,27.27
2019-01-15T09:39:45.607Z,29.03
2019-01-15T09:42:21.705Z,26.33
2019-01-15T09:44:51.817Z,26.77
2019-01-15T09:47:20.324Z,25.53
2019-01-15T09:49:48.934Z,24.73
2019-01-15T09:52:20.444Z,25.60
2019-01-15T09:54:48.612Z,26.40
2019-01-15T09:57:17.654Z,24.43
2019-01-15T09:59:46.873Z,25.27
2019-01-15T10:02:15.609Z,24.70
2019-01-15T10:04:45.285Z,26.27
2019-01-15T10:07:14.886Z,24.97
2019-01-15T10:09:45.349Z,25.30
2019-01-15T10:12:14.031Z,23.03
2019-01-15T10:14:43.420Z,23.97
2019-01-15T10:17:12.236Z,22.83
2019-01-15T10:19:40.586Z,23.53
2019-01-15T10:22:09.224Z,20.63
2019-01-15T10:24:38.547Z,23.23
2019-01-15T10:27:07.602Z,20.07
2019-01-15T10:29:37.029Z,22.23
2019-01-15T10:32:37.575Z,20.80
2019-01-15T10:35:20.923Z,21.53
2019-01-15T10:37:50.826Z,22.50
2019-01-15T10:40:19.697Z,20.03
2019-01-15T10:42:48.498Z,19.40
2019-01-15T10:45:17.828Z,18.63
2019-01-15T10:47:47.534Z,20.97
2019-01-15T10:50:20.900Z,20.40
2019-01-15T10:52:49.497Z,18.93
2019-01-15T10:55:18.801Z,20.03
2019-01-15T10:57:47.153Z,20.33
2019-01-15T11:00:15.974Z,19.00
2019-01-15T11:02:45.049Z,20.40
2019-01-15T11:05:14.251Z,20.77
2019-01-15T11:07:44.330Z,19.87
2019-01-15T11:10:14.311Z,19.10
2019-01-15T11:12:45.740Z,19.83
2019-01-15T11:15:14.372Z,18.83
2019-01-15T11:17:42.849Z,18.87
2019-01-15T11:20:13.084Z,18.50
2019-01-15T11:22:41.581Z,19.37
2019-01-15T11:25:11.460Z,18.53
2019-01-15T11:27:40.829Z,19.23
2019-01-15T11:30:10.957Z,19.70
2019-01-15T11:32:40.747Z,18.27
2019-01-15T11:35:10.873Z,18.60
2019-01-15T11:37:40.787Z,18.40
2019-01-15T11:40:09.348Z,20.00
2019-01-15T11:42:37.813Z,17.33
2019-01-15T11:45:07.979Z,16.27
2019-01-15T11:47:36.421Z,17.10
2019-01-15T11:50:11.743Z,17.50
2019-01-15T11:52:40.151Z,18.17
2019-01-15T11:55:10.678Z,16.90
2019-01-15T11:57:39.447Z,15.97
2019-01-15T12:00:14.108Z,16.33
2019-01-15T12:02:54.259Z,16.73
2019-01-15T12:05:45.212Z,15.73
2019-01-15T12:08:33.534Z,15.27
2019-01-15T12:11:21.040Z,14.87
2019-01-15T12:14:19.054Z,14.53
2019-01-15T12:17:08.126Z,14.00
2019-01-15T12:20:16.423Z,14.87
2019-01-15T12:23:11.492Z,14.47
2019-01-15T12:26:03.100Z,14.50
2019-01-15T12:28:46.196Z,14.07
2019-01-15T12:31:34.623Z,14.53
2019-01-15T12:34:23.044Z,14.83
2019-01-15T12:37:14.315Z,14.27
2019-01-15T12:40:00.006Z,14.67
2019-01-15T12:42:47.668Z,14.77
2019-01-15T12:45:45.611Z,15.80
2019-01-15T12:48:43.887Z,14.73
2019-01-15T12:51:42.180Z,16.00
2019-01-15T12:54:26.970Z,17.93
2019-01-15T12:57:31.253Z,18.47
2019-01-15T13:00:35.338Z,18.30
2019-01-15T13:03:33.362Z,19.37
2019-01-15T13:06:40.282Z,18.23
2019-01-15T13:09:45.414Z,20.33
2019-01-15T13:12:36.379Z,20.00
2019-01-15T13:15:34.685Z,20.43
2019-01-15T13:18:23.218Z,23.03
2019-01-15T13:21:10.484Z,19.73
2019-01-15T13:24:00.208Z,21.57
2019-01-15T13:26:48.615Z,20.63
2019-01-15T13:29:56.467Z,19.80
2019-01-15T13:32:45.538Z,20.27
2019-01-15T13:35:46.167Z,21.60
2019-01-15T13:38:41.306Z,20.73
2019-01-15T13:41:23.047Z,20.60
2019-01-15T13:44:11.616Z,20.73
2019-01-15T13:47:10.222Z,19.60
2019-01-15T13:49:58.945Z,21.07
2019-01-15T13:52:46.200Z,20.03
2019-01-15T13:55:35.014Z,20.67
2019-01-15T13:58:12.445Z,18.77
2019-01-15T14:00:54.566Z,19.13
2019-01-15T14:03:46.394Z,20.33
2019-01-15T14:06:37.526Z,19.00
2019-01-15T14:09:32.877Z,18.63
2019-01-15T14:12:36.944Z,18.10
2019-01-15T14:15:41.170Z,19.17
2019-01-15T14:18:34.036Z,18.60
2019-01-15T14:21:23.473Z,18.80
2019-01-15T14:24:15.520Z,18.03
2019-01-15T14:27:09.106Z,18.90
2019-01-15T14:30:04.588Z,19.63
2019-01-15T14:32:58.606Z,19.07
2019-01-15T14:35:45.962Z,18.50
2019-01-15T14:38:53.097Z,19.93
2019-01-15T14:41:40.145Z,20.90
2019-01-15T14:44:43.902Z,19.73
2019-01-15T14:47:48.291Z,18.67
2019-01-15T14:50:33.505Z,19.20
2019-01-15T14:53:20.464Z,18.73
2019-01-15T14:56:24.116Z,17.03
2019-01-15T14:59:11.683Z,17.10
2019-01-15T15:02:04.991Z,18.67
2019-01-15T15:05:00.763Z,18.70
2019-01-15T15:07:53.133Z,17.43
2019-01-15T15:10:41.130Z,16.73
2019-01-15T15:13:33.307Z,17.00
2019-01-15T15:16:26.711Z,16.47
2019-01-15T15:19:15.892Z,17.87
2019-01-15T15:22:13.222Z,15.43
2019-01-15T15:25:00.849Z,15.30
2019-01-15T15:27:43.357Z,15.73
2019-01-15T15:30:34.077Z,14.90
2019-01-15T15:33:24.304Z,16.40
2019-01-15T15:36:14.141Z,16.23
2019-01-15T15:38:57.954Z,15.97
2019-01-15T15:41:45.653Z,15.60
2019-01-15T15:44:34.185Z,15.40
2019-01-15T15:47:24.022Z,15.43
2019-01-15T15:50:24.879Z,13.70
2019-01-15T15:53:12.960Z,13.47
2019-01-15T15:56:03.493Z,13.37
2019-01-15T15:58:51.570Z,13.97
2019-01-15T16:01:36.889Z,14.27
2019-01-15T16:04:25.921Z,13.63
2019-01-15T16:07:32.423Z,13.20
2019-01-15T16:10:29.707Z,12.40
2019-01-15T16:13:17.301Z,13.10
2019-01-15T16:16:03.980Z,11.87
2019-01-15T16:19:07.492Z,11.90
2019-01-15T16:22:00.290Z,12.00
2019-01-15T16:24:54.652Z,12.33
2019-01-15T16:27:41.082Z,11.97
2019-01-15T16:30:28.219Z,11.90
2019-01-15T16:33:23.876Z,12.30
2019-01-15T16:36:23.652Z,10.80
2019-01-15T16:39:12.165Z,11.77
2019-01-15T16:42:01.361Z,11.43
2019-01-15T16:44:44.802Z,11.67
2019-01-15T16:47:23.140Z,12.03
2019-01-15T16:50:02.930Z,11.73
2019-01-15T16:52:54.493Z,11.63
2019-01-15T16:55:43.723Z,12.80
2019-01-15T16:58:50.482Z,12.93
2019-01-15T17:01:47.443Z,11.53
2019-01-15T17:04:49.388Z,13.37
2019-01-15T17:07:38.386Z,13.50
2019-01-15T17:10:36.664Z,13.13
2019-01-15T17:13:28.073Z,13.27
2019-01-15T17:16:33.326Z,14.50
2019-01-15T17:19:29.052Z,15.10
2019-01-15T17:22:26.379Z,14.07
2019-01-15T17:25:22.004Z,14.70
2019-01-15T17:28:03.435Z,13.87
2019-01-15T17:31:10.058Z,13.27
2019-01-15T17:34:07.787Z,13.30
2019-01-15T17:37:12.883Z,14.43
2019-01-15T17:40:03.450Z,14.53
2019-01-15T17:43:02.420Z,13.43
2019-01-15T17:45:52.280Z,13.70
2019-01-15T17:48:56.740Z,13.37
2019-01-15T17:51:44.168Z,15.77
2019-01-15T17:54:48.837Z,13.80
2019-01-15T17:57:35.886Z,14.83
2019-01-15T18:00:25.190Z,15.10
2019-01-15T18:03:17.980Z,13.17
2019-01-15T18:06:12.405Z,15.47
2019-01-15T18:08:58.953Z,14.50
2019-01-15T18:12:02.915Z,13.93
2019-01-15T18:14:54.465Z,14.20
2019-01-15T18:17:49.509Z,14.07
2019-01-15T18:20:40.487Z,13.37
2019-01-15T18:23:39.088Z,14.83
2019-01-15T18:26:30.138Z,14.47
2019-01-15T18:29:18.734Z,14.23
2019-01-15T18:32:23.818Z,15.53
2019-01-15T18:35:16.366Z,14.97
2019-01-15T18:38:10.452Z,13.67
2019-01-15T18:41:06.074Z,13.63
2019-01-15T18:43:55.383Z,13.83
2019-01-15T18:46:45.309Z,14.97
2019-01-15T18:49:35.034Z,14.67
2019-01-15T18:52:24.432Z,17.00
2019-01-15T18:55:22.672Z,16.07
2019-01-15T18:58:31.110Z,15.20
2019-01-15T19:01:25.535Z,14.97
2019-01-15T19:04:15.152Z,16.53
2019-01-15T19:07:03.050Z,15.70
2019-01-15T19:10:01.363Z,16.20
2019-01-15T19:12:51.957Z,16.63
2019-01-15T19:15:43.945Z,16.57
2019-01-15T19:18:41.323Z,17.23
2019-01-15T19:21:50.951Z,17.37
2019-01-15T19:24:57.419Z,16.47
2019-01-15T19:28:06.077Z,18.07
2019-01-15T19:31:12.766Z,17.97
2019-01-15T19:34:04.142Z,17.80
2019-01-15T19:37:11.613Z,18.67
2019-01-15T19:40:10.307Z,17.93
2019-01-15T19:42:58.349Z,18.03
2019-01-15T19:45:56.937Z,17.37
2019-01-15T19:48:41.428Z,19.73
2019-01-15T19:51:38.673Z,18.43
2019-01-15T19:54:33.449Z,17.70
2019-01-15T19:57:17.431Z,18.77
2019-01-15T20:00:06.468Z,17.70
2019-01-15T20:02:55.646Z,18.77
2019-01-15T20:05:46.993Z,20.23
2019-01-15T20:08:37.264Z,21.57
2019-01-15T20:11:24.693Z,20.20
2019-01-15T20:14:22.040Z,20.80
2019-01-15T20:17:18.348Z,21.20
2019-01-15T20:20:02.778Z,20.90
2019-01-15T20:22:51.126Z,21.10
2019-01-15T20:25:36.305Z,20.83
2019-01-15T20:28:47.241Z,19.97
2019-01-15T20:31:36.636Z,21.23
2019-01-15T20:34:22.346Z,21.77
2019-01-15T20:37:09.984Z,20.70
2019-01-15T20:39:59.146Z,22.07
2019-01-15T20:43:03.291Z,22.27
2019-01-15T20:45:57.809Z,19.40
2019-01-15T20:48:49.398Z,20.03
2019-01-15T20:51:46.710Z,19.17
2019-01-15T20:54:32.176Z,19.07
2019-01-15T20:57:32.195Z,18.00
2019-01-15T21:00:19.629Z,18.10
2019-01-15T21:03:25.790Z,18.30
2019-01-15T21:06:30.318Z,17.13
2019-01-15T21:09:19.015Z,17.37
2019-01-15T21:12:11.823Z,16.57
2019-01-15T21:15:11.215Z,15.93
2019-01-15T21:18:02.888Z,16.20
2019-01-15T21:20:57.248Z,14.53
2019-01-15T21:23:46.232Z,15.27
2019-01-15T21:26:31.582Z,16.10
2019-01-15T21:29:46.269Z,15.47
2019-01-15T21:32:38.419Z,15.63
2019-01-15T21:35:27.173Z,15.00
2019-01-15T21:38:22.608Z,16.77
2019-01-15T21:41:30.291Z,15.43
2019-01-15T21:44:20.783Z,16.80
2019-01-15T21:47:09.774Z,16.10
2019-01-15T21:50:17.027Z,17.43
2019-01-15T21:53:03.854Z,15.33
2019-01-15T21:55:42.997Z,14.67
2019-01-15T21:58:29.246Z,14.93
2019-01-15T22:01:16.718Z,15.97
2019-01-15T22:04:14.598Z,15.40
2019-01-15T22:07:21.691Z,14.73
2019-01-15T22:10:11.668Z,15.70
2019-01-15T22:12:53.298Z,17.27
2019-01-15T22:15:41.231Z,17.30
2019-01-15T22:18:27.961Z,16.73
2019-01-15T22:21:25.837Z,15.53
2019-01-15T22:24:14.469Z,15.73
2019-01-15T22:27:04.563Z,17.33
2019-01-15T22:29:51.381Z,17.47
2019-01-15T22:32:46.826Z,17.37
2019-01-15T22:35:42.719Z,16.13
2019-01-15T22:38:40.897Z,17.77
2019-01-15T22:41:35.697Z,17.13
2019-01-15T22:44:24.773Z,16.27
2019-01-15T22:47:13.023Z,16.47
2019-01-15T22:50:02.413Z,18.50
2019-01-15T22:52:52.309Z,17.30
2019-01-15T22:55:34.014Z,18.17
2019-01-15T22:58:25.539Z,16.37
2019-01-15T23:01:15.841Z,16.60
2019-01-15T23:04:08.108Z,15.77
2019-01-15T23:06:59.546Z,17.43
2019-01-15T23:09:48.707Z,15.63
2019-01-15T23:12:38.088Z,15.87
2019-01-15T23:15:42.317Z,16.87
2019-01-15T23:18:46.045Z,15.00
2019-01-15T23:21:52.327Z,14.47
2019-01-15T23:24:57.452Z,15.40
2019-01-15T23:28:01.169Z,13.53
2019-01-15T23:30:48.759Z,13.57
2019-01-15T23:33:43.726Z,13.27
2019-01-15T23:36:24.397Z,13.17
2019-01-15T23:39:16.331Z,13.87
2019-01-15T23:42:00.237Z,13.30
2019-01-15T23:44:50.426Z,12.67
2019-01-15T23:47:47.887Z,12.80
2019-01-15T23:50:28.560Z,12.83
2019-01-15T23:53:20.292Z,13.10
2019-01-15T23:56:06.295Z,13.20
2019-01-15T23:58:54.951Z,14.03
